createdAt,value
2023-07-10T00:00:42.533Z,42.75
2023-07-10T00:01:42.532Z,42.76
2023-07-10T00:02:42.557Z,42.75
2023-07-10T00:03:42.551Z,42.76
2023-07-10T00:04:42.593Z,42.77
2023-07-10T00:05:42.643Z,42.77
2023-07-10T00:06:42.666Z,42.78
2023-07-10T00:07:42.696Z,42.78
2023-07-10T00:08:45.096Z,42.78
2023-07-10T00:09:42.924Z,42.81
2023-07-10T00:10:42.979Z,42.84
2023-07-10T00:11:43.000Z,42.83
2023-07-10T00:12:43.019Z,42.84
2023-07-10T00:13:43.089Z,42.87
2023-07-10T00:14:43.089Z,42.86
2023-07-10T00:15:43.129Z,42.88
2023-07-10T00:16:43.194Z,42.89
2023-07-10T00:17:43.284Z,42.92
2023-07-10T00:18:43.238Z,42.97
2023-07-10T00:19:43.315Z,42.97
2023-07-10T00:20:43.359Z,43.01
2023-07-10T00:21:43.404Z,43.06
2023-07-10T00:22:43.437Z,43.04
2023-07-10T00:23:43.459Z,43.08
2023-07-10T00:24:43.505Z,43.08
2023-07-10T00:25:43.583Z,43.12
2023-07-10T00:26:43.611Z,43.10
2023-07-10T00:27:43.626Z,43.17
2023-07-10T00:28:43.686Z,43.17
2023-07-10T00:29:43.748Z,43.18
2023-07-10T00:30:43.817Z,43.16
2023-07-10T00:31:43.838Z,43.18
2023-07-10T00:32:43.909Z,43.22
2023-07-10T00:33:43.920Z,43.19
2023-07-10T00:34:43.960Z,43.20
2023-07-10T00:35:44.052Z,43.28
2023-07-10T00:36:44.036Z,43.29
2023-07-10T00:37:44.106Z,43.31
2023-07-10T00:38:44.166Z,43.26
2023-07-10T00:39:44.212Z,43.28
2023-07-10T00:40:44.239Z,43.27
2023-07-10T00:41:44.277Z,43.30
2023-07-10T00:42:44.302Z,43.32
2023-07-10T00:43:44.341Z,43.34
2023-07-10T00:44:44.402Z,43.34
2023-07-10T00:45:44.455Z,43.37
2023-07-10T00:46:44.489Z,43.39
2023-07-10T00:47:44.546Z,43.41
2023-07-10T00:48:44.552Z,43.39
2023-07-10T00:49:44.621Z,43.42
2023-07-10T00:50:44.658Z,43.48
2023-07-10T00:51:44.718Z,43.47
2023-07-10T00:52:44.764Z,43.46
2023-07-10T00:53:44.806Z,43.52
2023-07-10T00:54:44.843Z,43.52
2023-07-10T00:55:44.929Z,43.57
2023-07-10T00:56:44.970Z,43.62
2023-07-10T00:57:44.998Z,43.64
2023-07-10T00:58:45.059Z,43.67
2023-07-10T00:59:45.086Z,43.67
2023-07-10T01:00:45.175Z,43.70
2023-07-10T01:01:45.248Z,43.71
2023-07-10T01:02:45.398Z,43.75
2023-07-10T01:03:45.316Z,43.74
2023-07-10T01:04:45.372Z,43.82
2023-07-10T01:05:45.453Z,43.81
2023-07-10T01:06:45.478Z,43.83
2023-07-10T01:07:45.544Z,43.84
2023-07-10T01:08:45.588Z,43.86
2023-07-10T01:09:45.642Z,43.89
2023-07-10T01:10:45.685Z,43.95
2023-07-10T01:11:45.751Z,43.93
2023-07-10T01:12:45.806Z,43.95
2023-07-10T01:13:45.891Z,43.97
2023-07-10T01:14:45.907Z,43.97
2023-07-10T01:15:46.013Z,43.97
2023-07-10T01:16:46.035Z,44.01
2023-07-10T01:17:46.112Z,43.98
2023-07-10T01:18:46.129Z,44.00
2023-07-10T01:19:46.158Z,44.01
2023-07-10T01:20:46.219Z,44.01
2023-07-10T01:21:46.312Z,44.01
2023-07-10T01:22:46.358Z,44.01
2023-07-10T01:23:46.376Z,44.03
2023-07-10T01:24:46.464Z,44.02
2023-07-10T01:25:46.519Z,44.02
2023-07-10T01:26:46.577Z,44.00
2023-07-10T01:27:46.619Z,44.03
2023-07-10T01:28:46.663Z,44.02
2023-07-10T01:29:46.727Z,44.00
2023-07-10T01:30:46.826Z,44.00
2023-07-10T01:31:46.841Z,44.00
2023-07-10T01:32:46.989Z,44.00
2023-07-10T01:33:46.915Z,43.98
2023-07-10T01:34:47.021Z,44.00
2023-07-10T01:35:47.111Z,43.98
2023-07-10T01:36:47.117Z,43.98
2023-07-10T01:37:47.180Z,43.97
2023-07-10T01:38:47.212Z,44.01
2023-07-10T01:39:47.267Z,44.01
2023-07-10T01:40:47.341Z,44.05
2023-07-10T01:41:47.386Z,44.04
2023-07-10T01:42:47.436Z,44.06
2023-07-10T01:43:47.522Z,44.08
2023-07-10T01:44:47.577Z,44.07
2023-07-10T01:45:47.650Z,44.11
2023-07-10T01:46:47.697Z,44.08
2023-07-10T01:47:47.870Z,44.08
2023-07-10T01:48:47.885Z,44.09
2023-07-10T01:49:47.891Z,44.11
2023-07-10T01:50:47.947Z,44.10
2023-07-10T01:51:47.996Z,44.13
2023-07-10T01:52:48.057Z,44.11
2023-07-10T01:53:48.104Z,44.15
2023-07-10T01:54:48.185Z,44.15
2023-07-10T01:55:48.253Z,44.17
2023-07-10T01:56:48.321Z,44.16
2023-07-10T01:57:48.366Z,44.16
2023-07-10T01:58:48.435Z,44.21
2023-07-10T01:59:48.509Z,44.19
2023-07-10T02:00:48.562Z,44.21
2023-07-10T02:01:48.710Z,44.24
2023-07-10T02:02:48.769Z,44.24
2023-07-10T02:03:48.845Z,44.26
2023-07-10T02:04:48.798Z,44.25
2023-07-10T02:05:48.829Z,44.26
2023-07-10T02:06:48.892Z,44.27
2023-07-10T02:07:48.936Z,44.28
2023-07-10T02:08:49.014Z,44.30
2023-07-10T02:09:49.087Z,44.32
2023-07-10T02:10:49.170Z,44.31
2023-07-10T02:11:49.209Z,44.33
2023-07-10T02:12:49.256Z,44.36
2023-07-10T02:13:49.410Z,44.37
2023-07-10T02:14:49.404Z,44.37
2023-07-10T02:15:49.501Z,44.39
2023-07-10T02:16:49.512Z,44.39
2023-07-10T02:17:49.600Z,44.44
2023-07-10T02:18:49.606Z,44.44
2023-07-10T02:19:49.690Z,44.43
2023-07-10T02:20:49.783Z,44.44
2023-07-10T02:21:49.818Z,44.45
2023-07-10T02:22:49.850Z,44.46
2023-07-10T02:23:49.916Z,44.49
2023-07-10T02:24:49.959Z,44.49
2023-07-10T02:25:50.052Z,44.46
2023-07-10T02:26:50.134Z,44.50
2023-07-10T02:27:50.182Z,44.48
2023-07-10T02:28:50.219Z,44.50
2023-07-10T02:29:50.285Z,44.51
2023-07-10T02:30:50.357Z,44.50
2023-07-10T02:31:50.434Z,44.49
2023-07-10T02:32:51.156Z,44.51
2023-07-10T02:33:50.504Z,44.48
2023-07-10T02:34:50.588Z,44.50
2023-07-10T02:35:50.617Z,44.49
2023-07-10T02:36:50.641Z,44.52
2023-07-10T02:37:50.723Z,44.51
2023-07-10T02:38:50.756Z,44.52
2023-07-10T02:39:50.840Z,44.53
2023-07-10T02:40:50.930Z,44.54
2023-07-10T02:41:50.944Z,44.53
2023-07-10T02:42:50.994Z,44.53
2023-07-10T02:43:51.060Z,44.55
2023-07-10T02:44:51.120Z,44.55
2023-07-10T02:45:51.231Z,44.56
2023-07-10T02:46:51.256Z,44.58
2023-07-10T02:47:51.302Z,44.56
2023-07-10T02:48:51.379Z,44.57
2023-07-10T02:49:51.420Z,44.58
2023-07-10T02:50:51.494Z,44.59
2023-07-10T02:51:51.538Z,44.60
2023-07-10T02:52:51.606Z,44.64
2023-07-10T02:53:51.642Z,44.65
2023-07-10T02:54:51.733Z,44.65
2023-07-10T02:55:51.790Z,44.67
2023-07-10T02:56:51.847Z,44.65
2023-07-10T02:57:51.925Z,44.72
2023-07-10T02:58:51.943Z,44.73
2023-07-10T02:59:52.031Z,44.75
2023-07-10T03:00:52.075Z,44.76
2023-07-10T03:01:52.097Z,44.77
2023-07-10T03:02:52.143Z,44.79
2023-07-10T03:03:52.183Z,44.78
2023-07-10T03:04:52.250Z,44.81
2023-07-10T03:05:52.277Z,44.78
2023-07-10T03:06:52.340Z,44.79
2023-07-10T03:07:52.394Z,44.76
2023-07-10T03:08:52.430Z,44.79
2023-07-10T03:09:52.489Z,44.78
2023-07-10T03:10:52.634Z,44.79
2023-07-10T03:11:52.561Z,44.78
2023-07-10T03:12:52.568Z,44.78
2023-07-10T03:13:52.659Z,44.75
2023-07-10T03:14:54.012Z,44.77
2023-07-10T03:15:52.699Z,44.76
2023-07-10T03:16:52.640Z,44.77
2023-07-10T03:17:52.731Z,44.72
2023-07-10T03:18:52.616Z,44.76
2023-07-10T03:19:52.622Z,44.72
2023-07-10T03:20:52.621Z,44.71
2023-07-10T03:21:52.627Z,44.74
2023-07-10T03:22:52.602Z,44.72
2023-07-10T03:23:52.612Z,44.73
2023-07-10T03:24:52.597Z,44.76
2023-07-10T03:25:52.593Z,44.77
2023-07-10T03:26:52.568Z,44.76
2023-07-10T03:27:53.854Z,44.75
2023-07-10T03:28:52.570Z,44.76
2023-07-10T03:29:52.554Z,44.74
2023-07-10T03:30:52.610Z,44.71
2023-07-10T03:31:52.564Z,44.71
2023-07-10T03:32:52.580Z,44.68
2023-07-10T03:33:52.520Z,44.73
2023-07-10T03:34:52.557Z,44.69
2023-07-10T03:35:52.528Z,44.71
2023-07-10T03:36:52.533Z,44.70
2023-07-10T03:37:52.516Z,44.73
2023-07-10T03:38:52.483Z,44.75
2023-07-10T03:39:52.485Z,44.73
2023-07-10T03:40:52.711Z,44.74
2023-07-10T03:41:52.502Z,44.77
2023-07-10T03:42:52.472Z,44.75
2023-07-10T03:43:52.490Z,44.73
2023-07-10T03:44:52.466Z,44.75
2023-07-10T03:45:52.486Z,44.75
2023-07-10T03:46:52.521Z,44.74
2023-07-10T03:47:52.476Z,44.78
2023-07-10T03:48:52.486Z,44.76
2023-07-10T03:49:52.452Z,44.74
2023-07-10T03:50:52.419Z,44.77
2023-07-10T03:51:52.414Z,44.78
2023-07-10T03:52:52.429Z,44.77
2023-07-10T03:53:52.446Z,44.78
2023-07-10T03:54:52.484Z,44.81
2023-07-10T03:55:52.565Z,44.80
2023-07-10T03:56:52.594Z,44.80
2023-07-10T03:57:52.610Z,44.82
2023-07-10T03:58:52.667Z,44.82
2023-07-10T03:59:52.729Z,44.80
2023-07-10T04:00:52.854Z,44.82
2023-07-10T04:01:52.789Z,44.80
2023-07-10T04:02:52.949Z,44.77
2023-07-10T04:03:52.932Z,44.78
2023-07-10T04:04:52.936Z,44.77
2023-07-10T04:05:52.980Z,44.79
2023-07-10T04:06:53.058Z,44.82
2023-07-10T04:07:53.044Z,44.82
2023-07-10T04:08:53.093Z,44.76
2023-07-10T04:09:53.138Z,44.74
2023-07-10T04:10:53.182Z,44.73
2023-07-10T04:11:53.181Z,44.74
2023-07-10T04:12:53.255Z,44.71
2023-07-10T04:13:53.419Z,44.74
2023-07-10T04:14:53.345Z,44.71
2023-07-10T04:15:53.403Z,44.71
2023-07-10T04:16:53.456Z,44.70
2023-07-10T04:17:53.611Z,44.71
2023-07-10T04:18:53.535Z,44.69
2023-07-10T04:19:53.529Z,44.67
2023-07-10T04:20:53.586Z,44.69
2023-07-10T04:21:53.648Z,44.68
2023-07-10T04:22:53.667Z,44.66
2023-07-10T04:23:53.711Z,44.66
2023-07-10T04:24:53.711Z,44.62
2023-07-10T04:25:53.794Z,44.63
2023-07-10T04:26:53.818Z,44.60
2023-07-10T04:27:53.823Z,44.61
2023-07-10T04:28:53.866Z,44.62
2023-07-10T04:29:53.918Z,44.60
2023-07-10T04:30:54.014Z,44.60
2023-07-10T04:31:53.994Z,44.62
2023-07-10T04:32:54.072Z,44.59
2023-07-10T04:33:54.068Z,44.63
2023-07-10T04:34:54.129Z,44.61
2023-07-10T04:35:54.198Z,44.65
2023-07-10T04:36:54.231Z,44.63
2023-07-10T04:37:54.272Z,44.64
2023-07-10T04:38:54.304Z,44.63
2023-07-10T04:39:54.325Z,44.61
2023-07-10T04:40:54.406Z,44.63
2023-07-10T04:41:54.455Z,44.63
2023-07-10T04:42:54.476Z,44.63
2023-07-10T04:43:54.509Z,44.65
2023-07-10T04:44:54.550Z,44.63
2023-07-10T04:45:54.636Z,44.63
2023-07-10T04:46:54.700Z,44.61
2023-07-10T04:47:54.722Z,44.61
2023-07-10T04:48:54.679Z,44.62
2023-07-10T04:49:54.732Z,44.64
2023-07-10T04:50:54.806Z,44.63
2023-07-10T04:51:54.817Z,44.66
2023-07-10T04:52:54.865Z,44.63
2023-07-10T04:53:54.914Z,44.64
2023-07-10T04:54:54.947Z,44.62
2023-07-10T04:55:54.998Z,44.62
2023-07-10T04:56:55.022Z,44.62
2023-07-10T04:57:55.086Z,44.61
2023-07-10T04:58:55.119Z,44.64
2023-07-10T04:59:55.147Z,44.62
2023-07-10T05:00:55.221Z,44.63
2023-07-10T05:01:55.280Z,44.62
2023-07-10T05:02:55.363Z,44.64
2023-07-10T05:03:55.331Z,44.64
2023-07-10T05:04:55.396Z,44.65
2023-07-10T05:05:55.418Z,44.66
2023-07-10T05:06:55.459Z,44.67
2023-07-10T05:07:55.429Z,44.68
2023-07-10T05:08:55.495Z,44.69
2023-07-10T05:09:55.503Z,44.68
2023-07-10T05:10:55.613Z,44.72
2023-07-10T05:11:55.551Z,44.70
2023-07-10T05:12:55.618Z,44.72
2023-07-10T05:13:55.656Z,44.72
2023-07-10T05:14:55.691Z,44.69
2023-07-10T05:15:55.799Z,44.70
2023-07-10T05:16:57.868Z,44.70
2023-07-10T05:17:55.782Z,44.69
2023-07-10T05:18:55.828Z,44.67
2023-07-10T05:19:55.954Z,44.70
2023-07-10T05:20:55.909Z,44.60
2023-07-10T05:21:55.943Z,44.64
2023-07-10T05:22:55.960Z,44.60
2023-07-10T05:23:56.069Z,44.60
2023-07-10T05:24:56.034Z,44.62
2023-07-10T05:25:56.131Z,44.59
2023-07-10T05:26:56.099Z,44.57
2023-07-10T05:27:56.162Z,44.57
2023-07-10T05:28:56.215Z,44.56
2023-07-10T05:29:56.222Z,44.58
2023-07-10T05:30:56.743Z,44.57
2023-07-10T05:31:56.300Z,44.53
2023-07-10T05:32:56.352Z,44.52
2023-07-10T05:33:56.349Z,44.50
2023-07-10T05:34:56.364Z,44.54
2023-07-10T05:35:56.427Z,44.53
2023-07-10T05:36:56.405Z,44.55
2023-07-10T05:37:56.450Z,44.53
2023-07-10T05:38:56.553Z,44.55
2023-07-10T05:39:56.535Z,44.58
2023-07-10T05:40:56.645Z,44.58
2023-07-10T05:41:56.572Z,44.59
2023-07-10T05:42:56.621Z,44.58
2023-07-10T05:43:56.673Z,44.59
2023-07-10T05:44:56.689Z,44.58
2023-07-10T05:45:56.750Z,44.57
2023-07-10T05:46:56.747Z,44.58
2023-07-10T05:47:56.777Z,44.58
2023-07-10T05:48:56.814Z,44.58
2023-07-10T05:49:56.835Z,44.60
2023-07-10T05:50:56.878Z,44.57
2023-07-10T05:51:56.923Z,44.60
2023-07-10T05:52:56.943Z,44.56
2023-07-10T05:53:56.989Z,44.53
2023-07-10T05:54:56.997Z,44.53
2023-07-10T05:55:57.060Z,44.55
2023-07-10T05:56:57.104Z,44.54
2023-07-10T05:57:57.129Z,44.53
2023-07-10T05:58:57.166Z,44.55
2023-07-10T05:59:57.173Z,44.56
2023-07-10T06:00:57.392Z,44.53
2023-07-10T06:01:57.319Z,44.55
2023-07-10T06:02:57.351Z,44.53
2023-07-10T06:03:57.414Z,44.54
2023-07-10T06:04:57.396Z,44.55
2023-07-10T06:05:57.639Z,44.53
2023-07-10T06:06:57.500Z,44.54
2023-07-10T06:07:57.559Z,44.53
2023-07-10T06:08:57.619Z,44.50
2023-07-10T06:09:57.668Z,44.48
2023-07-10T06:10:57.735Z,44.50
2023-07-10T06:11:57.788Z,44.50
2023-07-10T06:12:57.850Z,44.46
2023-07-10T06:13:57.892Z,44.45
2023-07-10T06:14:57.920Z,44.45
2023-07-10T06:15:58.046Z,44.45
2023-07-10T06:16:58.035Z,44.43
2023-07-10T06:17:58.241Z,44.38
2023-07-10T06:18:58.134Z,44.38
2023-07-10T06:19:58.152Z,44.36
2023-07-10T06:20:58.234Z,44.37
2023-07-10T06:21:58.412Z,44.36
2023-07-10T06:22:58.264Z,44.35
2023-07-10T06:23:58.292Z,44.37
2023-07-10T06:24:58.320Z,44.36
2023-07-10T06:25:58.347Z,44.36
2023-07-10T06:26:58.389Z,44.36
2023-07-10T06:27:58.466Z,44.36
2023-07-10T06:28:58.496Z,44.33
2023-07-10T06:29:58.512Z,44.34
2023-07-10T06:30:58.783Z,44.34
2023-07-10T06:31:58.716Z,44.30
2023-07-10T06:32:58.724Z,44.26
2023-07-10T06:33:58.850Z,44.27
2023-07-10T06:34:58.781Z,44.29
2023-07-10T06:35:58.881Z,44.25
2023-07-10T06:36:58.881Z,44.27
2023-07-10T06:37:58.988Z,44.28
2023-07-10T06:38:59.022Z,44.29
2023-07-10T06:39:59.094Z,44.26
2023-07-10T06:40:59.191Z,44.24
2023-07-10T06:41:59.229Z,44.25
2023-07-10T06:42:59.282Z,44.23
2023-07-10T06:43:59.307Z,44.23
2023-07-10T06:44:59.351Z,44.21
2023-07-10T06:45:59.543Z,44.23
2023-07-10T06:46:59.493Z,44.22
2023-07-10T06:47:59.545Z,44.22
2023-07-10T06:48:59.646Z,44.20
2023-07-10T06:50:00.674Z,44.18
2023-07-10T06:50:59.921Z,44.20
2023-07-10T06:51:59.857Z,44.17
2023-07-10T06:53:14.907Z,44.16
2023-07-10T06:54:00.938Z,44.16
2023-07-10T06:54:59.969Z,44.16
2023-07-10T06:56:00.006Z,44.14
2023-07-10T06:56:59.990Z,44.08
2023-07-10T06:57:59.960Z,44.07
2023-07-10T06:58:59.901Z,44.06
2023-07-10T06:59:59.879Z,44.03
2023-07-10T07:00:59.969Z,44.02
2023-07-10T07:01:59.896Z,44.03
2023-07-10T07:03:00.022Z,43.99
2023-07-10T07:04:00.043Z,43.98
2023-07-10T07:05:00.049Z,43.98
2023-07-10T07:06:00.093Z,43.93
2023-07-10T07:07:00.142Z,43.92
2023-07-10T07:08:00.208Z,43.91
2023-07-10T07:09:00.243Z,43.89
2023-07-10T07:10:00.291Z,43.89
2023-07-10T07:11:00.333Z,43.85
2023-07-10T07:12:00.414Z,43.85
2023-07-10T07:13:00.443Z,43.85
2023-07-10T07:14:00.598Z,43.86
2023-07-10T07:15:00.619Z,43.81
2023-07-10T07:16:00.643Z,43.82
2023-07-10T07:17:00.717Z,43.83
2023-07-10T07:18:00.815Z,43.83
2023-07-10T07:19:11.174Z,43.79
2023-07-10T07:20:01.804Z,43.77
2023-07-10T07:21:00.796Z,43.73
2023-07-10T07:22:00.756Z,43.76
2023-07-10T07:23:00.777Z,43.74
2023-07-10T07:24:00.776Z,43.69
2023-07-10T07:25:00.748Z,43.70
2023-07-10T07:26:00.761Z,43.72
2023-07-10T07:27:00.794Z,43.75
2023-07-10T07:28:00.824Z,43.72
2023-07-10T07:29:00.740Z,43.69
2023-07-10T07:30:00.745Z,43.75
2023-07-10T07:31:00.841Z,43.74
2023-07-10T07:32:00.826Z,43.77
2023-07-10T07:33:00.929Z,43.76
2023-07-10T07:34:00.928Z,43.74
2023-07-10T07:35:00.990Z,43.74
2023-07-10T07:36:01.915Z,43.73
2023-07-10T07:37:01.076Z,43.74
2023-07-10T07:38:01.112Z,43.72
2023-07-10T07:39:01.160Z,43.71
2023-07-10T07:40:01.236Z,43.70
2023-07-10T07:41:01.272Z,43.66
2023-07-10T07:42:01.290Z,43.65
2023-07-10T07:43:01.358Z,43.62
2023-07-10T07:44:01.459Z,43.61
2023-07-10T07:45:01.472Z,43.60
2023-07-10T07:46:01.502Z,43.61
2023-07-10T07:47:01.585Z,43.58
2023-07-10T07:48:01.762Z,43.56
2023-07-10T07:49:01.650Z,43.56
2023-07-10T07:50:01.727Z,43.56
2023-07-10T07:51:01.765Z,43.53
2023-07-10T07:52:01.820Z,43.54
2023-07-10T07:53:01.878Z,43.49
2023-07-10T07:54:01.903Z,43.49
2023-07-10T07:55:01.939Z,43.47
2023-07-10T07:56:02.185Z,43.43
2023-07-10T07:57:02.001Z,43.39
2023-07-10T07:58:02.030Z,43.40
2023-07-10T07:59:02.092Z,43.39
2023-07-10T08:00:02.137Z,43.37
2023-07-10T08:01:02.195Z,43.38
2023-07-10T08:02:02.253Z,43.33
2023-07-10T08:03:02.374Z,43.36
2023-07-10T08:04:02.416Z,43.31
2023-07-10T08:05:02.512Z,43.29
2023-07-10T08:06:02.522Z,43.28
2023-07-10T08:07:02.417Z,43.26
2023-07-10T08:08:02.516Z,43.21
2023-07-10T08:09:02.514Z,43.19
2023-07-10T08:10:02.560Z,43.19
2023-07-10T08:11:02.624Z,43.18
2023-07-10T08:12:04.058Z,43.17
2023-07-10T08:13:02.674Z,43.15
2023-07-10T08:14:02.748Z,43.15
2023-07-10T08:15:02.763Z,43.15
2023-07-10T08:16:03.083Z,43.13
2023-07-10T08:17:02.843Z,43.12
2023-07-10T08:18:02.882Z,43.12
2023-07-10T08:19:02.925Z,43.10
2023-07-10T08:20:02.938Z,43.12
2023-07-10T08:21:02.977Z,43.09
2023-07-10T08:22:03.063Z,43.12
2023-07-10T08:23:03.106Z,43.11
2023-07-10T08:24:03.122Z,43.08
2023-07-10T08:25:03.144Z,43.01
2023-07-10T08:26:03.349Z,43.02
2023-07-10T08:27:03.184Z,42.99
2023-07-10T08:28:03.239Z,42.99
2023-07-10T08:29:03.296Z,42.97
2023-07-10T08:30:03.303Z,42.97
2023-07-10T08:31:03.444Z,42.97
2023-07-10T08:32:03.400Z,42.94
2023-07-10T08:33:03.433Z,42.92
2023-07-10T08:34:03.478Z,42.91
2023-07-10T08:35:03.483Z,42.90
2023-07-10T08:36:03.789Z,42.89
2023-07-10T08:37:03.572Z,42.91
2023-07-10T08:38:03.629Z,42.86
2023-07-10T08:39:03.617Z,42.84
2023-07-10T08:40:03.670Z,42.82
2023-07-10T08:41:03.703Z,42.81
2023-07-10T08:42:03.718Z,42.80
2023-07-10T08:43:03.748Z,42.80
2023-07-10T08:44:03.781Z,42.80
2023-07-10T08:45:03.854Z,42.78
2023-07-10T08:46:04.278Z,42.75
2023-07-10T08:47:04.076Z,42.74
2023-07-10T08:48:03.973Z,42.72
2023-07-10T08:49:03.994Z,42.72
2023-07-10T08:50:04.012Z,42.68
2023-07-10T08:51:04.058Z,42.66
2023-07-10T08:52:04.065Z,42.66
2023-07-10T08:53:04.136Z,42.62
2023-07-10T08:54:04.141Z,42.62
2023-07-10T08:55:04.164Z,42.65
2023-07-10T08:56:04.611Z,42.62
2023-07-10T08:57:04.227Z,42.60
2023-07-10T08:58:04.275Z,42.61
2023-07-10T08:59:04.279Z,42.61
2023-07-10T09:00:04.354Z,42.58
2023-07-10T09:01:04.359Z,42.60
2023-07-10T09:02:04.376Z,42.53
2023-07-10T09:03:04.483Z,42.52
2023-07-10T09:04:04.545Z,42.51
2023-07-10T09:05:04.461Z,42.49
2023-07-10T09:06:04.854Z,42.50
2023-07-10T09:07:04.541Z,42.48
2023-07-10T09:08:04.562Z,42.44
2023-07-10T09:09:04.583Z,42.42
2023-07-10T09:10:04.644Z,42.40
2023-07-10T09:11:04.640Z,42.39
2023-07-10T09:12:04.660Z,42.37
2023-07-10T09:13:04.698Z,42.34
2023-07-10T09:14:04.763Z,42.33
2023-07-10T09:15:04.733Z,42.34
2023-07-10T09:16:04.976Z,42.32
2023-07-10T09:17:04.796Z,42.29
2023-07-10T09:18:04.841Z,42.27
2023-07-10T09:19:04.904Z,42.23
2023-07-10T09:20:04.961Z,42.23
2023-07-10T09:21:04.899Z,42.20
2023-07-10T09:22:04.912Z,42.17
2023-07-10T09:23:04.917Z,42.14
2023-07-10T09:24:04.953Z,42.14
2023-07-10T09:25:04.974Z,42.14
2023-07-10T09:26:05.186Z,42.16
2023-07-10T09:27:05.029Z,42.16
2023-07-10T09:28:05.048Z,42.16
2023-07-10T09:29:05.057Z,42.17
2023-07-10T09:30:05.106Z,42.13
2023-07-10T09:31:05.106Z,42.12
2023-07-10T09:32:05.194Z,42.14
2023-07-10T09:33:05.214Z,42.15
2023-07-10T09:34:05.159Z,42.15
2023-07-10T09:35:05.221Z,42.10
2023-07-10T09:36:05.396Z,42.10
2023-07-10T09:37:06.487Z,42.10
2023-07-10T09:38:05.238Z,42.08
2023-07-10T09:39:05.284Z,42.05
2023-07-10T09:40:05.325Z,42.03
2023-07-10T09:41:05.314Z,42.02
2023-07-10T09:42:05.400Z,41.96
2023-07-10T09:43:05.392Z,41.97
2023-07-10T09:44:05.363Z,41.94
2023-07-10T09:45:05.398Z,41.92
2023-07-10T09:46:05.620Z,41.89
2023-07-10T09:47:05.435Z,41.87
2023-07-10T09:48:05.476Z,41.86
2023-07-10T09:49:05.405Z,41.83
2023-07-10T09:50:05.459Z,41.82
2023-07-10T09:51:05.439Z,41.80
2023-07-10T09:52:05.477Z,41.77
2023-07-10T09:53:05.472Z,41.76
2023-07-10T09:54:05.550Z,41.76
2023-07-10T09:55:05.537Z,41.74
2023-07-10T09:56:05.946Z,41.75
2023-07-10T09:57:05.518Z,41.71
2023-07-10T09:58:05.577Z,41.72
2023-07-10T09:59:05.530Z,41.75
2023-07-10T10:00:05.544Z,41.75
2023-07-10T10:01:05.748Z,41.73
2023-07-10T10:02:05.560Z,41.70
2023-07-10T10:03:05.605Z,41.71
2023-07-10T10:04:05.643Z,41.74
2023-07-10T10:05:05.611Z,41.74
2023-07-10T10:06:05.924Z,41.77
2023-07-10T10:07:05.629Z,41.77
2023-07-10T10:08:05.638Z,41.78
2023-07-10T10:09:05.643Z,41.74
2023-07-10T10:10:05.733Z,41.74
2023-07-10T10:11:05.699Z,41.78
2023-07-10T10:12:05.701Z,41.79
2023-07-10T10:13:05.691Z,41.79
2023-07-10T10:14:05.719Z,41.79
2023-07-10T10:15:05.701Z,41.82
2023-07-10T10:16:06.103Z,41.84
2023-07-10T10:17:05.730Z,41.86
2023-07-10T10:18:05.924Z,41.91
2023-07-10T10:19:05.919Z,41.91
2023-07-10T10:20:05.750Z,41.92
2023-07-10T10:21:05.764Z,41.96
2023-07-10T10:22:05.796Z,41.99
2023-07-10T10:23:05.778Z,42.01
2023-07-10T10:24:05.809Z,42.02
2023-07-10T10:25:05.772Z,42.03
2023-07-10T10:26:06.064Z,42.06
2023-07-10T10:27:05.812Z,42.05
2023-07-10T10:28:05.820Z,42.09
2023-07-10T10:29:05.839Z,42.08
2023-07-10T10:30:05.810Z,42.12
2023-07-10T10:31:05.893Z,42.13
2023-07-10T10:32:05.840Z,42.17
2023-07-10T10:33:05.879Z,42.17
2023-07-10T10:34:05.845Z,42.16
2023-07-10T10:35:05.839Z,42.19
2023-07-10T10:36:06.142Z,42.21
2023-07-10T10:37:05.874Z,42.21
2023-07-10T10:38:05.869Z,42.22
2023-07-10T10:39:06.887Z,42.22
2023-07-10T10:40:05.886Z,42.24
2023-07-10T10:41:05.926Z,42.25
2023-07-10T10:42:05.925Z,42.23
2023-07-10T10:43:05.942Z,42.28
2023-07-10T10:44:05.943Z,42.26
2023-07-10T10:45:06.780Z,42.27
2023-07-10T10:46:06.306Z,42.28
2023-07-10T10:47:05.936Z,42.26
2023-07-10T10:48:05.997Z,42.30
2023-07-10T10:49:05.994Z,42.29
2023-07-10T10:50:05.987Z,42.29
2023-07-10T10:51:07.027Z,42.27
2023-07-10T10:52:06.018Z,42.27
2023-07-10T10:53:06.023Z,42.30
2023-07-10T10:54:12.838Z,42.30
2023-07-10T10:55:07.017Z,42.31
2023-07-10T10:56:07.990Z,42.31
2023-07-10T10:57:05.983Z,42.30
2023-07-10T10:58:06.027Z,42.34
2023-07-10T10:59:05.983Z,42.35
2023-07-10T11:00:05.997Z,42.33
2023-07-10T11:01:05.998Z,42.32
2023-07-10T11:02:05.964Z,42.31
2023-07-10T11:03:06.020Z,42.33
2023-07-10T11:04:06.008Z,42.34
2023-07-10T11:05:05.941Z,42.34
2023-07-10T11:06:06.265Z,42.33
2023-07-10T11:07:05.942Z,42.33
2023-07-10T11:08:05.919Z,42.34
2023-07-10T11:09:05.959Z,42.33
2023-07-10T11:10:05.923Z,42.35
2023-07-10T11:11:05.883Z,42.33
2023-07-10T11:12:05.875Z,42.34
2023-07-10T11:13:05.900Z,42.35
2023-07-10T11:14:05.984Z,42.34
2023-07-10T11:15:05.861Z,42.34
2023-07-10T11:16:06.305Z,42.34
2023-07-10T11:17:05.857Z,42.33
2023-07-10T11:18:05.949Z,42.34
2023-07-10T11:19:05.865Z,42.34
2023-07-10T11:20:05.840Z,42.34
2023-07-10T11:21:05.828Z,42.34
2023-07-10T11:22:05.834Z,42.34
2023-07-10T11:23:05.798Z,42.30
2023-07-10T11:24:05.804Z,42.32
2023-07-10T11:25:06.601Z,42.30
2023-07-10T11:26:06.007Z,42.32
2023-07-10T11:27:05.797Z,42.31
2023-07-10T11:28:05.808Z,42.31
2023-07-10T11:29:07.952Z,42.32
2023-07-10T11:30:05.847Z,42.32
2023-07-10T11:31:05.893Z,42.31
2023-07-10T11:32:05.795Z,42.30
2023-07-10T11:33:05.836Z,42.32
2023-07-10T11:34:05.770Z,42.29
2023-07-10T11:35:18.357Z,42.30
2023-07-10T11:36:06.859Z,42.31
2023-07-10T11:37:06.105Z,42.30
2023-07-10T11:38:05.754Z,42.30
2023-07-10T11:39:05.753Z,42.30
2023-07-10T11:40:05.740Z,42.29
2023-07-10T11:41:05.735Z,42.28
2023-07-10T11:42:05.716Z,42.31
2023-07-10T11:43:05.706Z,42.30
2023-07-10T11:44:05.737Z,42.30
2023-07-10T11:45:05.732Z,42.30
2023-07-10T11:46:06.063Z,42.28
2023-07-10T11:47:06.057Z,42.26
2023-07-10T11:48:05.869Z,42.26
2023-07-10T11:49:05.666Z,42.24
2023-07-10T11:50:05.672Z,42.21
2023-07-10T11:51:05.643Z,42.19
2023-07-10T11:52:05.670Z,42.20
2023-07-10T11:53:05.636Z,42.19
2023-07-10T11:54:05.651Z,42.17
2023-07-10T11:55:05.629Z,42.16
2023-07-10T11:56:05.923Z,42.13
2023-07-10T11:57:05.605Z,42.13
2023-07-10T11:58:05.629Z,42.11
2023-07-10T11:59:05.590Z,42.09
2023-07-10T12:00:06.384Z,42.06
2023-07-10T12:01:05.733Z,42.07
2023-07-10T12:02:05.700Z,42.06
2023-07-10T12:03:05.653Z,42.04
2023-07-10T12:04:05.597Z,42.04
2023-07-10T12:05:05.588Z,42.02
2023-07-10T12:06:05.833Z,42.00
2023-07-10T12:07:05.567Z,42.01
2023-07-10T12:08:07.592Z,41.98
2023-07-10T12:09:05.504Z,41.96
2023-07-10T12:10:05.546Z,41.94
2023-07-10T12:11:05.482Z,41.94
2023-07-10T12:12:05.517Z,41.96
2023-07-10T12:13:05.480Z,41.95
2023-07-10T12:14:05.537Z,41.91
2023-07-10T12:15:05.476Z,41.90
2023-07-10T12:16:05.685Z,41.91
2023-07-10T12:17:30.211Z,41.90
2023-07-10T12:18:06.592Z,41.88
2023-07-10T12:19:05.569Z,41.89
2023-07-10T12:20:05.493Z,41.87
2023-07-10T12:21:05.465Z,41.86
2023-07-10T12:22:05.470Z,41.89
2023-07-10T12:23:05.499Z,41.86
2023-07-10T12:24:05.464Z,41.84
2023-07-10T12:25:05.486Z,41.85
2023-07-10T12:26:05.581Z,41.86
2023-07-10T12:27:41.314Z,41.81
2023-07-10T12:28:24.884Z,41.84
2023-07-10T12:29:06.455Z,41.87
2023-07-10T12:30:05.440Z,41.85
2023-07-10T12:31:05.464Z,41.84
2023-07-10T12:32:05.403Z,41.84
2023-07-10T12:33:05.447Z,41.83
2023-07-10T12:34:05.364Z,41.82
2023-07-10T12:35:05.384Z,41.80
2023-07-10T12:36:05.696Z,41.78
2023-07-10T12:37:05.367Z,41.80
2023-07-10T12:38:05.340Z,41.76
2023-07-10T12:39:05.360Z,41.75
2023-07-10T12:40:05.338Z,41.78
2023-07-10T12:41:05.335Z,41.77
2023-07-10T12:42:05.304Z,41.78
2023-07-10T12:43:05.337Z,41.77
2023-07-10T12:44:05.330Z,41.77
2023-07-10T12:45:05.348Z,41.78
2023-07-10T12:46:05.554Z,41.74
2023-07-10T12:47:05.486Z,41.77
2023-07-10T12:48:05.294Z,41.75
2023-07-10T12:49:05.269Z,41.75
2023-07-10T12:50:05.273Z,41.75
2023-07-10T12:51:05.267Z,41.73
2023-07-10T12:52:05.232Z,41.68
2023-07-10T12:53:05.292Z,41.69